sensor_id;sensor_type;location;lat;lon;timestamp;pressure;altitude;pressure_sealevel;temperature;humidity
17855;BME280;9053;53.358;6.382;2023-04-15T00:00:27;101060.97;;;8.63;91.82
17855;BME280;9053;53.358;6.382;2023-04-15T00:02:57;101071.38;;;8.61;91.86
17855;BME280;9053;53.358;6.382;2023-04-15T00:05:28;101059.09;;;8.60;92.00
17855;BME280;9053;53.358;6.382;2023-04-15T00:07:59;101063.38;;;8.58;92.20
17855;BME280;9053;53.358;6.382;2023-04-15T00:10:32;101059.78;;;8.56;92.30
17855;BME280;9053;53.358;6.382;2023-04-15T00:13:02;101064.06;;;8.54;92.43
17855;BME280;9053;53.358;6.382;2023-04-15T00:15:32;101061.28;;;8.51;92.46
17855;BME280;9053;53.358;6.382;2023-04-15T00:18:03;101068.19;;;8.49;92.66
17855;BME280;9053;53.358;6.382;2023-04-15T00:20:34;101065.44;;;8.46;92.68
17855;BME280;9053;53.358;6.382;2023-04-15T00:23:04;101072.31;;;8.44;92.84
17855;BME280;9053;53.358;6.382;2023-04-15T00:25:36;101066.94;;;8.41;92.99
17855;BME280;9053;53.358;6.382;2023-04-15T00:28:06;101066.69;;;8.36;93.11
17855;BME280;9053;53.358;6.382;2023-04-15T00:30:37;101070.00;;;8.32;93.27
17855;BME280;9053;53.358;6.382;2023-04-15T00:33:09;101068.16;;;8.30;93.32
17855;BME280;9053;53.358;6.382;2023-04-15T00:35:47;101067.19;;;8.28;93.48
17855;BME280;9053;53.358;6.382;2023-04-15T00:39:27;101072.94;;;8.20;93.60
17855;BME280;9053;53.358;6.382;2023-04-15T00:42:24;101075.50;;;8.19;93.84
17855;BME280;9053;53.358;6.382;2023-04-15T00:45:02;101076.22;;;8.16;93.96
17855;BME280;9053;53.358;6.382;2023-04-15T00:47:41;101069.88;;;8.11;94.14
17855;BME280;9053;53.358;6.382;2023-04-15T00:50:19;101075.13;;;8.11;94.33
17855;BME280;9053;53.358;6.382;2023-04-15T00:52:53;101070.59;;;8.07;94.46
17855;BME280;9053;53.358;6.382;2023-04-15T00:55:30;101082.69;;;8.05;94.56
17855;BME280;9053;53.358;6.382;2023-04-15T00:58:03;101085.22;;;8.03;94.71
17855;BME280;9053;53.358;6.382;2023-04-15T01:00:33;101084.34;;;8.03;94.90
17855;BME280;9053;53.358;6.382;2023-04-15T01:03:03;101082.56;;;8.02;95.09
17855;BME280;9053;53.358;6.382;2023-04-15T01:05:37;101083.44;;;8.02;95.14
17855;BME280;9053;53.358;6.382;2023-04-15T01:08:20;101080.75;;;8.01;95.39
17855;BME280;9053;53.358;6.382;2023-04-15T01:10:55;101078.97;;;8.00;95.54
17855;BME280;9053;53.358;6.382;2023-04-15T01:13:28;101072.69;;;7.96;95.69
17855;BME280;9053;53.358;6.382;2023-04-15T01:16:04;101090.06;;;7.94;95.85
17855;BME280;9053;53.358;6.382;2023-04-15T01:18:39;101091.78;;;7.94;95.93
17855;BME280;9053;53.358;6.382;2023-04-15T01:21:10;101094.31;;;7.92;96.11
17855;BME280;9053;53.358;6.382;2023-04-15T01:23:40;101089.81;;;7.90;96.20
17855;BME280;9053;53.358;6.382;2023-04-15T01:26:15;101090.66;;;7.89;96.41
17855;BME280;9053;53.358;6.382;2023-04-15T01:28:45;101086.19;;;7.86;96.52
17855;BME280;9053;53.358;6.382;2023-04-15T01:31:16;101092.22;;;7.85;96.62
17855;BME280;9053;53.358;6.382;2023-04-15T01:33:48;101088.63;;;7.83;96.81
17855;BME280;9053;53.358;6.382;2023-04-15T01:36:18;101091.25;;;7.83;96.83
17855;BME280;9053;53.358;6.382;2023-04-15T01:38:48;101095.59;;;7.83;97.02
17855;BME280;9053;53.358;6.382;2023-04-15T01:41:24;101095.59;;;7.83;97.13
17855;BME280;9053;53.358;6.382;2023-04-15T01:43:54;101098.28;;;7.84;97.30
17855;BME280;9053;53.358;6.382;2023-04-15T01:46:24;101092.13;;;7.84;97.33
17855;BME280;9053;53.358;6.382;2023-04-15T01:48:54;101093.06;;;7.84;97.48
17855;BME280;9053;53.358;6.382;2023-04-15T01:51:24;101101.72;;;7.83;97.58
17855;BME280;9053;53.358;6.382;2023-04-15T01:53:54;101101.66;;;7.82;97.56
17855;BME280;9053;53.358;6.382;2023-04-15T01:56:29;101106.81;;;7.80;97.64
17855;BME280;9053;53.358;6.382;2023-04-15T01:59:06;101100.59;;;7.78;97.73
17855;BME280;9053;53.358;6.382;2023-04-15T02:01:42;101101.56;;;7.80;97.84
17855;BME280;9053;53.358;6.382;2023-04-15T02:04:24;101101.56;;;7.80;97.89
17855;BME280;9053;53.358;6.382;2023-04-15T02:06:58;101103.28;;;7.79;97.99
17855;BME280;9053;53.358;6.382;2023-04-15T02:09:29;101097.97;;;7.78;97.94
17855;BME280;9053;53.358;6.382;2023-04-15T02:12:02;101094.56;;;7.79;98.06
17855;BME280;9053;53.358;6.382;2023-04-15T02:14:31;101098.84;;;7.78;98.12
17855;BME280;9053;53.358;6.382;2023-04-15T02:17:09;101093.47;;;7.75;98.01
17855;BME280;9053;53.358;6.382;2023-04-15T02:19:53;101102.16;;;7.74;98.12
17855;BME280;9053;53.358;6.382;2023-04-15T02:22:54;101100.22;;;7.70;98.12
17855;BME280;9053;53.358;6.382;2023-04-15T02:25:53;101108.00;;;7.69;98.13
17855;BME280;9053;53.358;6.382;2023-04-15T02:28:37;101108.81;;;7.68;98.20
17855;BME280;9053;53.358;6.382;2023-04-15T02:31:23;101112.13;;;7.64;98.15
17855;BME280;9053;53.358;6.382;2023-04-15T02:33:54;101125.88;;;7.59;98.04
17855;BME280;9053;53.358;6.382;2023-04-15T02:36:23;101124.72;;;7.54;98.14
17855;BME280;9053;53.358;6.382;2023-04-15T02:38:55;101130.63;;;7.50;98.15
17855;BME280;9053;53.358;6.382;2023-04-15T02:41:25;101131.22;;;7.45;98.14
17855;BME280;9053;53.358;6.382;2023-04-15T02:43:58;101131.81;;;7.39;98.13
17855;BME280;9053;53.358;6.382;2023-04-15T02:46:28;101129.84;;;7.35;98.05
17855;BME280;9053;53.358;6.382;2023-04-15T02:48:58;101142.88;;;7.33;98.15
17855;BME280;9053;53.358;6.382;2023-04-15T02:51:29;101144.41;;;7.30;98.23
17855;BME280;9053;53.358;6.382;2023-04-15T02:53:59;101144.16;;;7.25;98.25
17855;BME280;9053;53.358;6.382;2023-04-15T02:56:29;101148.44;;;7.23;98.37
17855;BME280;9053;53.358;6.382;2023-04-15T02:59:06;101147.63;;;7.24;98.40
17855;BME280;9053;53.358;6.382;2023-04-15T03:01:35;101144.84;;;7.21;98.52
17855;BME280;9053;53.358;6.382;2023-04-15T03:04:05;101144.66;;;7.18;98.65
17855;BME280;9053;53.358;6.382;2023-04-15T03:06:36;101151.47;;;7.14;98.77
17855;BME280;9053;53.358;6.382;2023-04-15T03:09:06;101153.03;;;7.11;98.82
17855;BME280;9053;53.358;6.382;2023-04-15T03:11:37;101158.25;;;7.11;98.82
17855;BME280;9053;53.358;6.382;2023-04-15T03:14:10;101153.81;;;7.10;98.94
17855;BME280;9053;53.358;6.382;2023-04-15T03:16:40;101158.91;;;7.07;98.98
17855;BME280;9053;53.358;6.382;2023-04-15T03:19:14;101158.75;;;7.04;99.16
17855;BME280;9053;53.358;6.382;2023-04-15T03:21:43;101158.50;;;6.99;99.28
17855;BME280;9053;53.358;6.382;2023-04-15T03:24:13;101159.25;;;6.97;99.25
17855;BME280;9053;53.358;6.382;2023-04-15T03:26:43;101163.56;;;6.96;99.30
17855;BME280;9053;53.358;6.382;2023-04-15T03:29:15;101167.09;;;6.97;99.42
17855;BME280;9053;53.358;6.382;2023-04-15T03:31:45;101169.69;;;6.97;99.56
17855;BME280;9053;53.358;6.382;2023-04-15T03:34:15;101160.06;;;6.96;99.62
17855;BME280;9053;53.358;6.382;2023-04-15T03:36:45;101166.94;;;6.93;99.73
17855;BME280;9053;53.358;6.382;2023-04-15T03:39:17;101169.53;;;6.93;99.82
17855;BME280;9053;53.358;6.382;2023-04-15T03:41:47;101168.72;;;6.94;99.95
17855;BME280;9053;53.358;6.382;2023-04-15T03:44:19;101178.59;;;7.00;100.00
17855;BME280;9053;53.358;6.382;2023-04-15T03:46:52;101175.97;;;7.00;100.00
17855;BME280;9053;53.358;6.382;2023-04-15T03:49:32;101175.19;;;7.01;100.00
17855;BME280;9053;53.358;6.382;2023-04-15T03:52:02;101187.53;;;7.04;100.00
17855;BME280;9053;53.358;6.382;2023-04-15T03:54:32;101175.34;;;7.04;100.00
17855;BME280;9053;53.358;6.382;2023-04-15T03:57:05;101190.19;;;7.05;100.00
17855;BME280;9053;53.358;6.382;2023-04-15T03:59:37;101188.50;;;7.06;100.00
17855;BME280;9053;53.358;6.382;2023-04-15T04:02:07;101188.50;;;7.06;100.00
17855;BME280;9053;53.358;6.382;2023-04-15T04:04:39;101198.03;;;7.05;100.00
17855;BME280;9053;53.358;6.382;2023-04-15T04:07:29;101185.78;;;7.04;100.00
17855;BME280;9053;53.358;6.382;2023-04-15T04:10:01;101190.13;;;7.04;100.00
17855;BME280;9053;53.358;6.382;2023-04-15T04:12:43;101191.84;;;7.03;100.00
17855;BME280;9053;53.358;6.382;2023-04-15T04:15:15;101191.66;;;7.00;100.00
17855;BME280;9053;53.358;6.382;2023-04-15T04:17:45;101194.28;;;7.00;100.00
17855;BME280;9053;53.358;6.382;2023-04-15T04:20:15;101203.94;;;7.01;100.00
17855;BME280;9053;53.358;6.382;2023-04-15T04:22:45;101189.16;;;7.02;100.00
17855;BME280;9053;53.358;6.382;2023-04-15T04:25:15;101202.47;;;7.06;100.00
17855;BME280;9053;53.358;6.382;2023-04-15T04:27:45;101195.78;;;7.11;100.00
17855;BME280;9053;53.358;6.382;2023-04-15T04:30:25;101206.47;;;7.16;100.00
17855;BME280;9053;53.358;6.382;2023-04-15T04:32:55;101208.53;;;7.22;100.00
17855;BME280;9053;53.358;6.382;2023-04-15T04:35:26;101204.34;;;7.25;100.00
17855;BME280;9053;53.358;6.382;2023-04-15T04:37:56;101208.81;;;7.28;100.00
17855;BME280;9053;53.358;6.382;2023-04-15T04:40:26;101209.66;;;7.27;100.00
17855;BME280;9053;53.358;6.382;2023-04-15T04:42:56;101211.38;;;7.26;100.00
17855;BME280;9053;53.358;6.382;2023-04-15T04:45:29;101220.22;;;7.28;100.00
17855;BME280;9053;53.358;6.382;2023-04-15T04:48:00;101222.00;;;7.29;100.00
17855;BME280;9053;53.358;6.382;2023-04-15T04:50:33;101225.47;;;7.28;100.00
17855;BME280;9053;53.358;6.382;2023-04-15T04:53:03;101222.75;;;7.27;100.00
17855;BME280;9053;53.358;6.382;2023-04-15T04:55:32;101219.28;;;7.28;100.00
17855;BME280;9053;53.358;6.382;2023-04-15T04:58:06;101229.03;;;7.30;100.00
17855;BME280;9053;53.358;6.382;2023-04-15T05:00:41;101236.97;;;7.32;100.00
17855;BME280;9053;53.358;6.382;2023-04-15T05:03:11;101229.22;;;7.33;100.00
17855;BME280;9053;53.358;6.382;2023-04-15T05:05:42;101239.00;;;7.37;100.00
17855;BME280;9053;53.358;6.382;2023-04-15T05:08:13;101229.63;;;7.41;100.00
17855;BME280;9053;53.358;6.382;2023-04-15T05:10:43;101244.25;;;7.54;100.00
17855;BME280;9053;53.358;6.382;2023-04-15T05:13:13;101237.44;;;7.74;100.00
17855;BME280;9053;53.358;6.382;2023-04-15T05:15:46;101237.75;;;7.98;100.00
17855;BME280;9053;53.358;6.382;2023-04-15T05:18:16;101239.75;;;8.20;100.00
17855;BME280;9053;53.358;6.382;2023-04-15T05:20:46;101241.25;;;8.33;100.00
17855;BME280;9053;53.358;6.382;2023-04-15T05:23:19;101239.75;;;8.38;100.00
17855;BME280;9053;53.358;6.382;2023-04-15T05:25:49;101243.38;;;8.40;100.00
17855;BME280;9053;53.358;6.382;2023-04-15T05:28:19;101246.06;;;8.41;100.00
17855;BME280;9053;53.358;6.382;2023-04-15T05:30:52;101246.97;;;8.42;100.00
17855;BME280;9053;53.358;6.382;2023-04-15T05:33:27;101242.63;;;8.42;100.00
17855;BME280;9053;53.358;6.382;2023-04-15T05:35:57;101257.66;;;8.47;100.00
17855;BME280;9053;53.358;6.382;2023-04-15T05:38:27;101249.00;;;8.48;100.00
17855;BME280;9053;53.358;6.382;2023-04-15T05:40:57;101252.66;;;8.51;100.00
17855;BME280;9053;53.358;6.382;2023-04-15T05:43:27;101254.47;;;8.52;100.00
17855;BME280;9053;53.358;6.382;2023-04-15T05:46:00;101260.81;;;8.57;100.00
17855;BME280;9053;53.358;6.382;2023-04-15T05:48:30;101260.13;;;8.61;100.00
17855;BME280;9053;53.358;6.382;2023-04-15T05:51:00;101253.38;;;8.66;100.00
17855;BME280;9053;53.358;6.382;2023-04-15T05:53:31;101266.81;;;8.73;100.00
17855;BME280;9053;53.358;6.382;2023-04-15T05:56:01;101262.69;;;8.78;100.00
17855;BME280;9053;53.358;6.382;2023-04-15T05:58:31;101264.81;;;8.86;100.00
17855;BME280;9053;53.358;6.382;2023-04-15T06:01:04;101273.16;;;8.96;100.00
17855;BME280;9053;53.358;6.382;2023-04-15T06:03:36;101269.09;;;9.02;100.00
17855;BME280;9053;53.358;6.382;2023-04-15T06:06:06;101273.72;;;9.08;100.00
17855;BME280;9053;53.358;6.382;2023-04-15T06:08:36;101285.53;;;9.18;100.00
17855;BME280;9053;53.358;6.382;2023-04-15T06:11:06;101280.44;;;9.21;100.00
17855;BME280;9053;53.358;6.382;2023-04-15T06:13:36;101285.94;;;9.27;100.00
17855;BME280;9053;53.358;6.382;2023-04-15T06:16:09;101284.44;;;9.32;100.00
17855;BME280;9053;53.358;6.382;2023-04-15T06:18:39;101286.38;;;9.36;100.00
17855;BME280;9053;53.358;6.382;2023-04-15T06:21:09;101295.50;;;9.44;100.00
17855;BME280;9053;53.358;6.382;2023-04-15T06:23:39;101302.97;;;9.54;100.00
17855;BME280;9053;53.358;6.382;2023-04-15T06:26:09;101302.28;;;9.59;100.00
17855;BME280;9053;53.358;6.382;2023-04-15T06:28:39;101306.84;;;9.63;100.00
17855;BME280;9053;53.358;6.382;2023-04-15T06:31:12;101314.03;;;9.67;100.00
17855;BME280;9053;53.358;6.382;2023-04-15T06:33:42;101317.63;;;9.69;100.00
17855;BME280;9053;53.358;6.382;2023-04-15T06:36:13;101326.34;;;9.68;100.00
17855;BME280;9053;53.358;6.382;2023-04-15T06:38:43;101320.13;;;9.66;100.00
17855;BME280;9053;53.358;6.382;2023-04-15T06:41:13;101321.09;;;9.68;100.00
17855;BME280;9053;53.358;6.382;2023-04-15T06:43:43;101335.03;;;9.67;100.00
17855;BME280;9053;53.358;6.382;2023-04-15T06:46:15;101335.78;;;9.64;100.00
17855;BME280;9053;53.358;6.382;2023-04-15T06:48:48;101331.44;;;9.65;100.00
17855;BME280;9053;53.358;6.382;2023-04-15T06:51:18;101336.69;;;9.65;100.00
17855;BME280;9053;53.358;6.382;2023-04-15T06:53:49;101336.84;;;9.68;100.00
17855;BME280;9053;53.358;6.382;2023-04-15T06:56:19;101336.13;;;9.72;100.00
17855;BME280;9053;53.358;6.382;2023-04-15T06:58:51;101343.25;;;9.74;100.00
17855;BME280;9053;53.358;6.382;2023-04-15T07:01:35;101345.97;;;9.76;100.00
17855;BME280;9053;53.358;6.382;2023-04-15T07:04:05;101344.03;;;9.72;100.00
17855;BME280;9053;53.358;6.382;2023-04-15T07:06:35;101341.38;;;9.72;100.00
17855;BME280;9053;53.358;6.382;2023-04-15T07:09:08;101349.41;;;9.75;100.00
17855;BME280;9053;53.358;6.382;2023-04-15T07:11:38;101346.09;;;9.79;100.00
17855;BME280;9053;53.358;6.382;2023-04-15T07:14:08;101356.72;;;9.82;100.00
17855;BME280;9053;53.358;6.382;2023-04-15T07:16:40;101358.69;;;9.86;100.00
17855;BME280;9053;53.358;6.382;2023-04-15T07:19:10;101362.16;;;9.85;100.00
17855;BME280;9053;53.358;6.382;2023-04-15T07:21:40;101362.16;;;9.85;100.00
17855;BME280;9053;53.358;6.382;2023-04-15T07:24:10;101368.91;;;9.80;100.00
17855;BME280;9053;53.358;6.382;2023-04-15T07:26:42;101371.34;;;9.75;100.00
17855;BME280;9053;53.358;6.382;2023-04-15T07:29:14;101376.38;;;9.71;100.00
17855;BME280;9053;53.358;6.382;2023-04-15T07:31:46;101369.41;;;9.71;100.00
17855;BME280;9053;53.358;6.382;2023-04-15T07:34:17;101379.91;;;9.71;100.00
17855;BME280;9053;53.358;6.382;2023-04-15T07:36:47;101389.50;;;9.71;100.00
17855;BME280;9053;53.358;6.382;2023-04-15T07:39:17;101380.53;;;9.66;100.00
17855;BME280;9053;53.358;6.382;2023-04-15T07:41:48;101378.91;;;9.69;100.00
17855;BME280;9053;53.358;6.382;2023-04-15T07:44:18;101392.19;;;9.72;100.00
17855;BME280;9053;53.358;6.382;2023-04-15T07:46:50;101407.91;;;9.71;100.00
17855;BME280;9053;53.358;6.382;2023-04-15T07:49:20;101406.03;;;9.68;100.00
17855;BME280;9053;53.358;6.382;2023-04-15T07:51:50;101410.94;;;9.61;100.00
17855;BME280;9053;53.358;6.382;2023-04-15T07:54:20;101407.09;;;9.54;100.00
17855;BME280;9053;53.358;6.382;2023-04-15T07:56:50;101403.13;;;9.44;100.00
17855;BME280;9053;53.358;6.382;2023-04-15T07:59:20;101407.97;;;9.35;100.00
17855;BME280;9053;53.358;6.382;2023-04-15T08:01:52;101416.53;;;9.31;100.00
17855;BME280;9053;53.358;6.382;2023-04-15T08:04:23;101411.78;;;9.24;100.00
17855;BME280;9053;53.358;6.382;2023-04-15T08:06:54;101436.13;;;9.20;100.00
17855;BME280;9053;53.358;6.382;2023-04-15T08:09:24;101420.28;;;9.18;100.00
17855;BME280;9053;53.358;6.382;2023-04-15T08:11:54;101421.16;;;9.19;100.00
17855;BME280;9053;53.358;6.382;2023-04-15T08:14:24;101422.06;;;9.19;100.00
17855;BME280;9053;53.358;6.382;2023-04-15T08:16:57;101428.16;;;9.18;100.00
17855;BME280;9053;53.358;6.382;2023-04-15T08:19:27;101434.16;;;9.16;100.00
17855;BME280;9053;53.358;6.382;2023-04-15T08:21:56;101428.00;;;9.15;100.00
17855;BME280;9053;53.358;6.382;2023-04-15T08:24:32;101425.16;;;9.10;100.00
17855;BME280;9053;53.358;6.382;2023-04-15T08:27:05;101417.94;;;9.06;100.00
17855;BME280;9053;53.358;6.382;2023-04-15T08:29:46;101429.19;;;9.04;100.00
17855;BME280;9053;53.358;6.382;2023-04-15T08:32:22;101433.47;;;9.02;100.00
17855;BME280;9053;53.358;6.382;2023-04-15T08:34:55;101430.78;;;9.00;100.00
17855;BME280;9053;53.358;6.382;2023-04-15T09:12:33;101444.56;;;9.32;100.00
17855;BME280;9053;53.358;6.382;2023-04-15T09:15:05;101449.59;;;9.45;100.00
17855;BME280;9053;53.358;6.382;2023-04-15T09:17:43;101458.19;;;9.61;100.00
17855;BME280;9053;53.358;6.382;2023-04-15T09:20:16;101459.69;;;9.73;100.00
17855;BME280;9053;53.358;6.382;2023-04-15T09:22:48;101459.34;;;9.85;100.00
17855;BME280;9053;53.358;6.382;2023-04-15T09:28:02;101456.31;;;9.95;100.00
17855;BME280;9053;53.358;6.382;2023-04-15T09:30:33;101473.97;;;9.98;100.00
17855;BME280;9053;53.358;6.382;2023-04-15T09:33:07;101474.00;;;10.00;100.00
17855;BME280;9053;53.358;6.382;2023-04-15T09:35:37;101478.50;;;10.02;100.00
17855;BME280;9053;53.358;6.382;2023-04-15T09:38:08;101478.06;;;10.11;100.00
17855;BME280;9053;53.358;6.382;2023-04-15T09:40:40;101481.84;;;10.17;100.00
17855;BME280;9053;53.358;6.382;2023-04-15T09:43:16;101473.66;;;10.29;100.00
17855;BME280;9053;53.358;6.382;2023-04-15T09:45:48;101476.53;;;10.35;100.00
17855;BME280;9053;53.358;6.382;2023-04-15T09:48:19;101480.16;;;10.37;100.00
17855;BME280;9053;53.358;6.382;2023-04-15T09:50:51;101481.19;;;10.41;100.00
17855;BME280;9053;53.358;6.382;2023-04-15T09:53:24;101475.00;;;10.40;100.00
17855;BME280;9053;53.358;6.382;2023-04-15T09:55:58;101480.28;;;10.40;100.00
17855;BME280;9053;53.358;6.382;2023-04-15T09:58:32;101480.16;;;10.37;100.00
17855;BME280;9053;53.358;6.382;2023-04-15T10:01:04;101485.06;;;10.30;99.85
17855;BME280;9053;53.358;6.382;2023-04-15T10:03:35;101490.84;;;10.23;99.57
17855;BME280;9053;53.358;6.382;2023-04-15T10:06:08;101491.59;;;10.20;99.51
17855;BME280;9053;53.358;6.382;2023-04-15T10:08:39;101494.31;;;10.22;99.39
17855;BME280;9053;53.358;6.382;2023-04-15T10:11:11;101500.44;;;10.22;99.15
17855;BME280;9053;53.358;6.382;2023-04-15T10:13:48;101495.19;;;10.22;99.05
17855;BME280;9053;53.358;6.382;2023-04-15T10:16:19;101488.19;;;10.23;99.15
17855;BME280;9053;53.358;6.382;2023-04-15T10:18:56;101500.59;;;10.25;98.78
17855;BME280;9053;53.358;6.382;2023-04-15T10:32:56;101497.44;;;10.32;98.35
17855;BME280;9053;53.358;6.382;2023-04-15T10:35:32;101520.28;;;10.33;98.33
17855;BME280;9053;53.358;6.382;2023-04-15T10:38:37;101511.56;;;10.34;98.16
17855;BME280;9053;53.358;6.382;2023-04-15T10:41:15;101513.22;;;10.32;98.06
17855;BME280;9053;53.358;6.382;2023-04-15T10:43:48;101518.34;;;10.29;98.04
17855;BME280;9053;53.358;6.382;2023-04-15T10:46:35;101503.28;;;10.27;97.82
17855;BME280;9053;53.358;6.382;2023-04-15T10:51:45;101510.97;;;10.22;97.79
17855;BME280;9053;53.358;6.382;2023-04-15T10:54:30;101508.28;;;10.21;97.87
17855;BME280;9053;53.358;6.382;2023-04-15T11:02:51;101520.03;;;10.09;97.96
17855;BME280;9053;53.358;6.382;2023-04-15T11:05:48;101530.53;;;10.09;97.95
17855;BME280;9053;53.358;6.382;2023-04-15T11:08:19;101531.16;;;10.04;97.90
17855;BME280;9053;53.358;6.382;2023-04-15T11:10:56;101523.94;;;10.00;97.85
17855;BME280;9053;53.358;6.382;2023-04-15T11:13:27;101533.56;;;9.99;97.86
17855;BME280;9053;53.358;6.382;2023-04-15T11:16:02;101528.78;;;10.10;97.96
17855;BME280;9053;53.358;6.382;2023-04-15T11:18:33;101538.56;;;10.12;98.02
17855;BME280;9053;53.358;6.382;2023-04-15T11:21:09;101549.53;;;10.04;97.98
17855;BME280;9053;53.358;6.382;2023-04-15T11:23:50;101541.34;;;9.97;97.83
17855;BME280;9053;53.358;6.382;2023-04-15T11:26:27;101558.19;;;10.01;97.85
17855;BME280;9053;53.358;6.382;2023-04-15T11:29:04;101559.16;;;10.03;97.81
17855;BME280;9053;53.358;6.382;2023-04-15T11:31:48;101559.09;;;10.02;97.76
17855;BME280;9053;53.358;6.382;2023-04-15T11:34:22;101563.22;;;9.96;97.64
17855;BME280;9053;53.358;6.382;2023-04-15T11:36:56;101570.25;;;9.97;97.55
17855;BME280;9053;53.358;6.382;2023-04-15T11:39:28;101562.25;;;9.94;97.47
17855;BME280;9053;53.358;6.382;2023-04-15T11:42:01;101569.31;;;9.95;97.45
17855;BME280;9053;53.358;6.382;2023-04-15T11:44:30;101562.47;;;9.99;97.44
17855;BME280;9053;53.358;6.382;2023-04-15T11:47:21;101573.81;;;9.98;97.53
17855;BME280;9053;53.358;6.382;2023-04-15T11:49:51;101563.00;;;9.92;97.57
17855;BME280;9053;53.358;6.382;2023-04-15T11:55:02;101560.50;;;9.95;97.58
17855;BME280;9053;53.358;6.382;2023-04-15T11:57:35;101568.38;;;9.95;97.70
17855;BME280;9053;53.358;6.382;2023-04-15T12:00:09;101583.25;;;9.94;97.69
17855;BME280;9053;53.358;6.382;2023-04-15T12:02:41;101590.25;;;9.94;97.83
17855;BME280;9053;53.358;6.382;2023-04-15T12:05:14;101580.34;;;9.88;97.76
17855;BME280;9053;53.358;6.382;2023-04-15T12:08:01;101583.66;;;9.84;97.99
17855;BME280;9053;53.358;6.382;2023-04-15T12:10:34;101594.16;;;9.84;97.96
17855;BME280;9053;53.358;6.382;2023-04-15T12:13:08;101586.28;;;9.84;97.91
17855;BME280;9053;53.358;6.382;2023-04-15T12:15:40;101591.53;;;9.84;98.00
17855;BME280;9053;53.358;6.382;2023-04-15T12:18:18;101594.09;;;9.83;98.03
17855;BME280;9053;53.358;6.382;2023-04-15T12:21:07;101600.06;;;9.80;98.05
17855;BME280;9053;53.358;6.382;2023-04-15T12:23:47;101597.25;;;9.75;98.09
17855;BME280;9053;53.358;6.382;2023-04-15T12:26:18;101596.50;;;9.78;98.00
17855;BME280;9053;53.358;6.382;2023-04-15T12:29:04;101601.56;;;9.75;98.11
17855;BME280;9053;53.358;6.382;2023-04-15T12:31:51;101600.69;;;9.74;98.07
17855;BME280;9053;53.358;6.382;2023-04-15T12:34:31;101607.00;;;9.78;98.14
17855;BME280;9053;53.358;6.382;2023-04-15T12:37:02;101604.66;;;9.84;98.40
17855;BME280;9053;53.358;6.382;2023-04-15T12:39:41;101615.25;;;9.86;98.39
17855;BME280;9053;53.358;6.382;2023-04-15T12:42:20;101616.28;;;9.89;98.51
17855;BME280;9053;53.358;6.382;2023-04-15T12:44:58;101612.88;;;9.90;98.65
17855;BME280;9053;53.358;6.382;2023-04-15T12:47:28;101614.66;;;9.91;98.63
17855;BME280;9053;53.358;6.382;2023-04-15T12:53:38;101623.56;;;9.95;98.92
17855;BME280;9053;53.358;6.382;2023-04-15T12:56:09;101616.53;;;9.94;98.91
17855;BME280;9053;53.358;6.382;2023-04-15T12:58:39;101624.31;;;9.92;99.06
17855;BME280;9053;53.358;6.382;2023-04-15T13:01:12;101623.44;;;9.92;99.16
17855;BME280;9053;53.358;6.382;2023-04-15T13:03:42;101625.16;;;9.91;99.21
17855;BME280;9053;53.358;6.382;2023-04-15T13:06:12;101627.66;;;9.88;99.41
17855;BME280;9053;53.358;6.382;2023-04-15T13:08:44;101619.75;;;9.88;99.54
17855;BME280;9053;53.358;6.382;2023-04-15T13:11:24;101621.41;;;9.86;99.71
17855;BME280;9053;53.358;6.382;2023-04-15T13:13:58;101624.94;;;9.87;99.93
17855;BME280;9053;53.358;6.382;2023-04-15T13:16:31;101635.22;;;9.82;99.97
17855;BME280;9053;53.358;6.382;2023-04-15T13:19:02;101642.28;;;9.83;100.00
17855;BME280;9053;53.358;6.382;2023-04-15T13:21:33;101633.56;;;9.84;100.00
17855;BME280;9053;53.358;6.382;2023-04-15T13:24:05;101644.22;;;9.87;100.00
17855;BME280;9053;53.358;6.382;2023-04-15T13:46:54;101650.44;;;9.71;100.00
17855;BME280;9053;53.358;6.382;2023-04-15T13:49:24;101651.19;;;9.69;100.00
17855;BME280;9053;53.358;6.382;2023-04-15T13:51:55;101660.84;;;9.70;100.00
17855;BME280;9053;53.358;6.382;2023-04-15T13:54:26;101661.59;;;9.67;100.00
17855;BME280;9053;53.358;6.382;2023-04-15T13:57:03;101661.56;;;9.66;100.00
17855;BME280;9053;53.358;6.382;2023-04-15T13:59:33;101666.06;;;9.68;100.00
17855;BME280;9053;53.358;6.382;2023-04-15T14:02:06;101661.59;;;9.67;100.00
17855;BME280;9053;53.358;6.382;2023-04-15T14:04:38;101666.56;;;9.61;100.00
17855;BME280;9053;53.358;6.382;2023-04-15T14:07:08;101674.28;;;9.58;100.00
17855;BME280;9053;53.358;6.382;2023-04-15T14:09:38;101678.66;;;9.58;100.00
17855;BME280;9053;53.358;6.382;2023-04-15T14:12:09;101678.94;;;9.64;100.00
17855;BME280;9053;53.358;6.382;2023-04-15T14:14:39;101684.81;;;9.58;100.00
17855;BME280;9053;53.358;6.382;2023-04-15T14:17:11;101682.91;;;9.56;100.00
17855;BME280;9053;53.358;6.382;2023-04-15T14:19:41;101685.31;;;9.51;100.00
17855;BME280;9053;53.358;6.382;2023-04-15T14:22:11;101684.56;;;9.53;100.00
17855;BME280;9053;53.358;6.382;2023-04-15T14:24:41;101681.09;;;9.54;100.00
17855;BME280;9053;53.358;6.382;2023-04-15T14:27:15;101694.22;;;9.54;100.00
17855;BME280;9053;53.358;6.382;2023-04-15T14:29:45;101687.09;;;9.52;100.00
17855;BME280;9053;53.358;6.382;2023-04-15T14:32:18;101702.94;;;9.53;100.00
17855;BME280;9053;53.358;6.382;2023-04-15T14:34:47;101703.59;;;9.49;100.00
17855;BME280;9053;53.358;6.382;2023-04-15T14:37:17;101706.91;;;9.45;100.00
17855;BME280;9053;53.358;6.382;2023-04-15T14:39:47;101711.06;;;9.42;100.00
17855;BME280;9053;53.358;6.382;2023-04-15T14:42:17;101716.06;;;9.37;100.00
17855;BME280;9053;53.358;6.382;2023-04-15T14:44:47;101708.13;;;9.36;100.00
17855;BME280;9053;53.358;6.382;2023-04-15T14:47:19;101708.19;;;9.37;100.00
17855;BME280;9053;53.358;6.382;2023-04-15T14:49:51;101711.50;;;9.33;100.00
17855;BME280;9053;53.358;6.382;2023-04-15T14:52:21;101711.66;;;9.36;100.00
17855;BME280;9053;53.358;6.382;2023-04-15T14:54:51;101713.28;;;9.34;100.00
17855;BME280;9053;53.358;6.382;2023-04-15T14:57:21;101722.00;;;9.33;100.00
17855;BME280;9053;53.358;6.382;2023-04-15T14:59:51;101716.81;;;9.35;100.00